sensor_id;sensor_type;location;lat;lon;timestamp;P1;durP1;ratioP1;P2;durP2;ratioP2
76094;SDS011;64821;13.710;100.604;2023-04-24T00:00:39;27.30;;;20.70;;
76094;SDS011;64821;13.710;100.604;2023-04-24T00:01:43;28.38;;;20.35;;
76094;SDS011;64821;13.710;100.604;2023-04-24T00:02:46;28.67;;;20.83;;
76094;SDS011;64821;13.710;100.604;2023-04-24T00:03:49;28.35;;;20.52;;
76094;SDS011;64821;13.710;100.604;2023-04-24T00:04:52;30.38;;;20.02;;
76094;SDS011;64821;13.710;100.604;2023-04-24T00:05:56;29.73;;;21.63;;
76094;SDS011;64821;13.710;100.604;2023-04-24T00:06:59;31.10;;;22.70;;
76094;SDS011;64821;13.710;100.604;2023-04-24T00:08:02;30.77;;;21.63;;
76094;SDS011;64821;13.710;100.604;2023-04-24T00:09:05;33.47;;;22.63;;
76094;SDS011;64821;13.710;100.604;2023-04-24T00:10:10;32.05;;;22.65;;
76094;SDS011;64821;13.710;100.604;2023-04-24T00:11:15;30.70;;;22.02;;
76094;SDS011;64821;13.710;100.604;2023-04-24T00:12:18;30.73;;;22.13;;
76094;SDS011;64821;13.710;100.604;2023-04-24T00:13:21;33.53;;;23.77;;
76094;SDS011;64821;13.710;100.604;2023-04-24T00:14:24;35.72;;;23.75;;
76094;SDS011;64821;13.710;100.604;2023-04-24T00:15:26;37.10;;;23.60;;
76094;SDS011;64821;13.710;100.604;2023-04-24T00:16:29;37.50;;;25.00;;
76094;SDS011;64821;13.710;100.604;2023-04-24T00:17:32;37.50;;;23.67;;
76094;SDS011;64821;13.710;100.604;2023-04-24T00:18:35;33.90;;;23.73;;
76094;SDS011;64821;13.710;100.604;2023-04-24T00:19:38;36.53;;;25.13;;
76094;SDS011;64821;13.710;100.604;2023-04-24T00:20:41;37.08;;;25.40;;
76094;SDS011;64821;13.710;100.604;2023-04-24T00:21:44;36.03;;;23.60;;
76094;SDS011;64821;13.710;100.604;2023-04-24T00:22:47;36.47;;;24.85;;
76094;SDS011;64821;13.710;100.604;2023-04-24T00:23:50;33.25;;;23.58;;
76094;SDS011;64821;13.710;100.604;2023-04-24T00:24:53;39.22;;;25.98;;
76094;SDS011;64821;13.710;100.604;2023-04-24T00:25:58;39.75;;;25.73;;
76094;SDS011;64821;13.710;100.604;2023-04-24T00:27:01;37.95;;;25.25;;
76094;SDS011;64821;13.710;100.604;2023-04-24T00:28:04;37.08;;;25.27;;
76094;SDS011;64821;13.710;100.604;2023-04-24T00:29:07;40.25;;;25.25;;
76094;SDS011;64821;13.710;100.604;2023-04-24T00:30:10;37.37;;;24.60;;
76094;SDS011;64821;13.710;100.604;2023-04-24T00:31:13;42.30;;;28.20;;
76094;SDS011;64821;13.710;100.604;2023-04-24T00:32:16;40.63;;;25.00;;
76094;SDS011;64821;13.710;100.604;2023-04-24T00:33:19;42.03;;;28.88;;
76094;SDS011;64821;13.710;100.604;2023-04-24T00:34:22;40.92;;;26.67;;
76094;SDS011;64821;13.710;100.604;2023-04-24T00:35:25;38.78;;;26.98;;
76094;SDS011;64821;13.710;100.604;2023-04-24T00:36:28;40.83;;;25.73;;
76094;SDS011;64821;13.710;100.604;2023-04-24T00:37:30;38.50;;;25.65;;
76094;SDS011;64821;13.710;100.604;2023-04-24T00:38:33;42.05;;;26.10;;
76094;SDS011;64821;13.710;100.604;2023-04-24T00:39:36;43.22;;;27.02;;
76094;SDS011;64821;13.710;100.604;2023-04-24T00:40:39;35.80;;;25.13;;
76094;SDS011;64821;13.710;100.604;2023-04-24T00:41:44;38.13;;;25.83;;
76094;SDS011;64821;13.710;100.604;2023-04-24T00:42:47;38.50;;;26.50;;
76094;SDS011;64821;13.710;100.604;2023-04-24T00:43:51;38.00;;;25.58;;
76094;SDS011;64821;13.710;100.604;2023-04-24T00:44:54;41.83;;;26.90;;
76094;SDS011;64821;13.710;100.604;2023-04-24T00:45:58;39.63;;;26.38;;
76094;SDS011;64821;13.710;100.604;2023-04-24T00:47:01;35.63;;;26.25;;
76094;SDS011;64821;13.710;100.604;2023-04-24T00:48:04;37.13;;;24.73;;
76094;SDS011;64821;13.710;100.604;2023-04-24T00:49:07;36.15;;;25.35;;
76094;SDS011;64821;13.710;100.604;2023-04-24T00:50:10;36.20;;;24.90;;
76094;SDS011;64821;13.710;100.604;2023-04-24T00:51:13;36.50;;;26.37;;
76094;SDS011;64821;13.710;100.604;2023-04-24T00:52:16;39.10;;;26.95;;
76094;SDS011;64821;13.710;100.604;2023-04-24T00:53:19;39.40;;;26.60;;
76094;SDS011;64821;13.710;100.604;2023-04-24T00:54:22;37.38;;;24.83;;
76094;SDS011;64821;13.710;100.604;2023-04-24T00:55:25;38.17;;;25.35;;
76094;SDS011;64821;13.710;100.604;2023-04-24T00:56:28;33.72;;;24.83;;
76094;SDS011;64821;13.710;100.604;2023-04-24T00:57:32;35.95;;;25.00;;
76094;SDS011;64821;13.710;100.604;2023-04-24T00:58:35;36.60;;;25.10;;
76094;SDS011;64821;13.710;100.604;2023-04-24T00:59:38;36.28;;;24.77;;
76094;SDS011;64821;13.710;100.604;2023-04-24T01:00:42;35.90;;;25.27;;
76094;SDS011;64821;13.710;100.604;2023-04-24T01:01:45;37.17;;;24.37;;
76094;SDS011;64821;13.710;100.604;2023-04-24T01:02:48;36.40;;;24.55;;
76094;SDS011;64821;13.710;100.604;2023-04-24T01:03:51;36.53;;;25.90;;
76094;SDS011;64821;13.710;100.604;2023-04-24T01:04:55;38.85;;;26.27;;
76094;SDS011;64821;13.710;100.604;2023-04-24T01:05:58;37.50;;;24.88;;
76094;SDS011;64821;13.710;100.604;2023-04-24T01:07:01;37.88;;;25.80;;
76094;SDS011;64821;13.710;100.604;2023-04-24T01:08:04;33.30;;;23.85;;
76094;SDS011;64821;13.710;100.604;2023-04-24T01:09:07;37.60;;;25.38;;
76094;SDS011;64821;13.710;100.604;2023-04-24T01:10:10;37.38;;;26.77;;
76094;SDS011;64821;13.710;100.604;2023-04-24T01:11:13;44.35;;;28.77;;
76094;SDS011;64821;13.710;100.604;2023-04-24T01:12:17;39.23;;;26.47;;
76094;SDS011;64821;13.710;100.604;2023-04-24T01:13:22;36.25;;;26.05;;
76094;SDS011;64821;13.710;100.604;2023-04-24T01:14:25;39.15;;;27.08;;
76094;SDS011;64821;13.710;100.604;2023-04-24T01:15:27;36.63;;;26.05;;
76094;SDS011;64821;13.710;100.604;2023-04-24T01:16:30;39.80;;;27.30;;
76094;SDS011;64821;13.710;100.604;2023-04-24T01:17:33;40.03;;;25.50;;
76094;SDS011;64821;13.710;100.604;2023-04-24T01:18:36;37.08;;;26.15;;
76094;SDS011;64821;13.710;100.604;2023-04-24T01:19:39;40.08;;;27.10;;
76094;SDS011;64821;13.710;100.604;2023-04-24T01:20:43;37.92;;;26.35;;
76094;SDS011;64821;13.710;100.604;2023-04-24T01:21:47;35.65;;;24.73;;
76094;SDS011;64821;13.710;100.604;2023-04-24T01:22:55;38.00;;;25.73;;
76094;SDS011;64821;13.710;100.604;2023-04-24T01:23:58;34.47;;;24.58;;
76094;SDS011;64821;13.710;100.604;2023-04-24T01:25:01;42.75;;;27.98;;
76094;SDS011;64821;13.710;100.604;2023-04-24T01:26:04;39.75;;;27.10;;
76094;SDS011;64821;13.710;100.604;2023-04-24T01:27:08;39.53;;;26.75;;
76094;SDS011;64821;13.710;100.604;2023-04-24T01:28:11;36.22;;;26.35;;
76094;SDS011;64821;13.710;100.604;2023-04-24T01:29:14;40.17;;;26.83;;
76094;SDS011;64821;13.710;100.604;2023-04-24T01:30:17;41.97;;;27.10;;
76094;SDS011;64821;13.710;100.604;2023-04-24T01:31:20;36.72;;;24.95;;
76094;SDS011;64821;13.710;100.604;2023-04-24T01:32:24;42.35;;;27.60;;
76094;SDS011;64821;13.710;100.604;2023-04-24T01:33:27;35.97;;;25.57;;
76094;SDS011;64821;13.710;100.604;2023-04-24T01:34:30;29.08;;;20.25;;
76094;SDS011;64821;13.710;100.604;2023-04-24T01:35:33;37.00;;;25.70;;
76094;SDS011;64821;13.710;100.604;2023-04-24T01:36:36;35.38;;;25.25;;
76094;SDS011;64821;13.710;100.604;2023-04-24T01:37:40;35.20;;;25.65;;
76094;SDS011;64821;13.710;100.604;2023-04-24T01:38:44;33.65;;;23.75;;
76094;SDS011;64821;13.710;100.604;2023-04-24T01:39:47;35.70;;;25.20;;
76094;SDS011;64821;13.710;100.604;2023-04-24T01:40:50;39.13;;;26.60;;
76094;SDS011;64821;13.710;100.604;2023-04-24T01:41:54;55.33;;;29.45;;
76094;SDS011;64821;13.710;100.604;2023-04-24T01:42:57;39.80;;;26.27;;
76094;SDS011;64821;13.710;100.604;2023-04-24T01:44:00;35.27;;;24.47;;
76094;SDS011;64821;13.710;100.604;2023-04-24T01:45:03;38.13;;;25.40;;
76094;SDS011;64821;13.710;100.604;2023-04-24T01:46:06;34.72;;;24.02;;
76094;SDS011;64821;13.710;100.604;2023-04-24T01:47:09;35.35;;;24.70;;
76094;SDS011;64821;13.710;100.604;2023-04-24T01:48:13;34.45;;;24.88;;
76094;SDS011;64821;13.710;100.604;2023-04-24T01:49:16;32.72;;;22.98;;
76094;SDS011;64821;13.710;100.604;2023-04-24T01:50:18;35.03;;;23.70;;
76094;SDS011;64821;13.710;100.604;2023-04-24T01:51:21;32.80;;;23.15;;
76094;SDS011;64821;13.710;100.604;2023-04-24T01:52:24;31.50;;;24.27;;
76094;SDS011;64821;13.710;100.604;2023-04-24T01:53:27;30.00;;;23.17;;
76094;SDS011;64821;13.710;100.604;2023-04-24T01:54:32;28.13;;;21.03;;
76094;SDS011;64821;13.710;100.604;2023-04-24T01:55:35;31.65;;;23.20;;
76094;SDS011;64821;13.710;100.604;2023-04-24T01:56:38;33.05;;;24.13;;
76094;SDS011;64821;13.710;100.604;2023-04-24T01:57:43;31.98;;;22.80;;
76094;SDS011;64821;13.710;100.604;2023-04-24T01:58:46;30.52;;;22.98;;
76094;SDS011;64821;13.710;100.604;2023-04-24T01:59:49;32.95;;;23.48;;
76094;SDS011;64821;13.710;100.604;2023-04-24T02:00:52;33.67;;;23.60;;
76094;SDS011;64821;13.710;100.604;2023-04-24T02:01:55;34.85;;;24.65;;
76094;SDS011;64821;13.710;100.604;2023-04-24T02:02:58;33.65;;;24.55;;
76094;SDS011;64821;13.710;100.604;2023-04-24T02:04:01;34.13;;;24.40;;
76094;SDS011;64821;13.710;100.604;2023-04-24T02:05:06;34.47;;;23.50;;
76094;SDS011;64821;13.710;100.604;2023-04-24T02:06:09;27.35;;;18.52;;
76094;SDS011;64821;13.710;100.604;2023-04-24T02:07:11;32.90;;;23.33;;
76094;SDS011;64821;13.710;100.604;2023-04-24T02:08:14;33.25;;;24.17;;
76094;SDS011;64821;13.710;100.604;2023-04-24T02:09:17;37.75;;;26.02;;
76094;SDS011;64821;13.710;100.604;2023-04-24T02:10:22;30.58;;;22.77;;
76094;SDS011;64821;13.710;100.604;2023-04-24T02:11:25;31.92;;;22.65;;
76094;SDS011;64821;13.710;100.604;2023-04-24T02:12:28;33.35;;;24.02;;
76094;SDS011;64821;13.710;100.604;2023-04-24T02:13:31;33.40;;;23.13;;
76094;SDS011;64821;13.710;100.604;2023-04-24T02:14:34;30.48;;;21.75;;
76094;SDS011;64821;13.710;100.604;2023-04-24T02:15:36;32.00;;;23.13;;
76094;SDS011;64821;13.710;100.604;2023-04-24T02:16:39;29.73;;;21.92;;
76094;SDS011;64821;13.710;100.604;2023-04-24T02:17:42;33.60;;;23.38;;
76094;SDS011;64821;13.710;100.604;2023-04-24T02:18:45;30.88;;;22.55;;
76094;SDS011;64821;13.710;100.604;2023-04-24T02:19:48;30.90;;;22.80;;
76094;SDS011;64821;13.710;100.604;2023-04-24T02:20:51;32.85;;;22.75;;
76094;SDS011;64821;13.710;100.604;2023-04-24T02:21:54;32.95;;;24.60;;
76094;SDS011;64821;13.710;100.604;2023-04-24T02:22:57;30.63;;;22.58;;
76094;SDS011;64821;13.710;100.604;2023-04-24T02:24:00;29.75;;;21.77;;
76094;SDS011;64821;13.710;100.604;2023-04-24T02:25:03;30.15;;;22.58;;
76094;SDS011;64821;13.710;100.604;2023-04-24T02:26:08;31.00;;;23.83;;
76094;SDS011;64821;13.710;100.604;2023-04-24T02:27:11;29.50;;;22.52;;
76094;SDS011;64821;13.710;100.604;2023-04-24T02:28:14;35.47;;;24.77;;
76094;SDS011;64821;13.710;100.604;2023-04-24T02:29:17;31.88;;;23.75;;
76094;SDS011;64821;13.710;100.604;2023-04-24T02:30:20;33.05;;;23.70;;
76094;SDS011;64821;13.710;100.604;2023-04-24T02:31:23;29.30;;;22.38;;
76094;SDS011;64821;13.710;100.604;2023-04-24T02:32:26;30.27;;;23.38;;
76094;SDS011;64821;13.710;100.604;2023-04-24T02:33:29;29.23;;;23.13;;
76094;SDS011;64821;13.710;100.604;2023-04-24T02:34:32;29.95;;;23.23;;
76094;SDS011;64821;13.710;100.604;2023-04-24T02:35:35;29.35;;;22.40;;
76094;SDS011;64821;13.710;100.604;2023-04-24T02:36:38;29.30;;;23.10;;
76094;SDS011;64821;13.710;100.604;2023-04-24T02:37:41;29.80;;;23.15;;
76094;SDS011;64821;13.710;100.604;2023-04-24T02:38:44;31.85;;;24.05;;
76094;SDS011;64821;13.710;100.604;2023-04-24T02:39:47;32.20;;;23.60;;
76094;SDS011;64821;13.710;100.604;2023-04-24T02:40:52;31.83;;;25.23;;
76094;SDS011;64821;13.710;100.604;2023-04-24T02:41:56;29.85;;;23.25;;
76094;SDS011;64821;13.710;100.604;2023-04-24T02:42:59;31.02;;;23.77;;
76094;SDS011;64821;13.710;100.604;2023-04-24T02:44:02;31.30;;;23.48;;
76094;SDS011;64821;13.710;100.604;2023-04-24T02:45:06;35.45;;;24.23;;
76094;SDS011;64821;13.710;100.604;2023-04-24T02:46:09;29.40;;;23.55;;
76094;SDS011;64821;13.710;100.604;2023-04-24T02:47:12;33.93;;;25.23;;
76094;SDS011;64821;13.710;100.604;2023-04-24T02:48:15;30.65;;;23.33;;
76094;SDS011;64821;13.710;100.604;2023-04-24T02:49:18;29.75;;;23.67;;
76094;SDS011;64821;13.710;100.604;2023-04-24T02:50:20;32.83;;;24.27;;
76094;SDS011;64821;13.710;100.604;2023-04-24T02:51:23;29.52;;;23.50;;
76094;SDS011;64821;13.710;100.604;2023-04-24T02:52:26;28.75;;;21.50;;
76094;SDS011;64821;13.710;100.604;2023-04-24T02:53:29;29.75;;;22.10;;
76094;SDS011;64821;13.710;100.604;2023-04-24T02:54:32;30.75;;;23.60;;
76094;SDS011;64821;13.710;100.604;2023-04-24T02:55:35;29.20;;;23.55;;
76094;SDS011;64821;13.710;100.604;2023-04-24T02:56:38;29.63;;;22.38;;
76094;SDS011;64821;13.710;100.604;2023-04-24T02:57:42;30.70;;;23.67;;
76094;SDS011;64821;13.710;100.604;2023-04-24T02:58:45;33.00;;;24.25;;
76094;SDS011;64821;13.710;100.604;2023-04-24T02:59:48;32.75;;;23.65;;
76094;SDS011;64821;13.710;100.604;2023-04-24T03:00:53;29.25;;;24.10;;
76094;SDS011;64821;13.710;100.604;2023-04-24T03:01:56;29.08;;;22.60;;
76094;SDS011;64821;13.710;100.604;2023-04-24T03:02:59;29.15;;;22.90;;
76094;SDS011;64821;13.710;100.604;2023-04-24T03:04:02;26.83;;;21.02;;
76094;SDS011;64821;13.710;100.604;2023-04-24T03:05:06;31.38;;;22.17;;
76094;SDS011;64821;13.710;100.604;2023-04-24T03:06:09;31.67;;;22.98;;
76094;SDS011;64821;13.710;100.604;2023-04-24T03:07:12;28.40;;;21.75;;
76094;SDS011;64821;13.710;100.604;2023-04-24T03:08:15;26.10;;;19.57;;
76094;SDS011;64821;13.710;100.604;2023-04-24T03:09:17;26.05;;;19.92;;
76094;SDS011;64821;13.710;100.604;2023-04-24T03:10:20;26.77;;;20.90;;
76094;SDS011;64821;13.710;100.604;2023-04-24T03:11:23;24.20;;;20.70;;
76094;SDS011;64821;13.710;100.604;2023-04-24T03:12:26;28.77;;;22.15;;
76094;SDS011;64821;13.710;100.604;2023-04-24T03:13:31;26.60;;;20.58;;
76094;SDS011;64821;13.710;100.604;2023-04-24T03:14:34;26.48;;;21.15;;
76094;SDS011;64821;13.710;100.604;2023-04-24T03:15:37;29.10;;;22.77;;
76094;SDS011;64821;13.710;100.604;2023-04-24T03:16:39;29.35;;;21.05;;
76094;SDS011;64821;13.710;100.604;2023-04-24T03:17:42;27.23;;;19.73;;
76094;SDS011;64821;13.710;100.604;2023-04-24T03:18:45;26.73;;;21.33;;
76094;SDS011;64821;13.710;100.604;2023-04-24T03:19:48;26.25;;;21.25;;
76094;SDS011;64821;13.710;100.604;2023-04-24T03:20:51;28.10;;;20.58;;
76094;SDS011;64821;13.710;100.604;2023-04-24T03:21:54;26.23;;;20.83;;
76094;SDS011;64821;13.710;100.604;2023-04-24T03:22:57;31.02;;;22.55;;
76094;SDS011;64821;13.710;100.604;2023-04-24T03:24:00;30.70;;;23.65;;
76094;SDS011;64821;13.710;100.604;2023-04-24T03:25:03;27.73;;;21.90;;
76094;SDS011;64821;13.710;100.604;2023-04-24T03:26:06;31.27;;;24.10;;
76094;SDS011;64821;13.710;100.604;2023-04-24T03:27:09;30.33;;;23.40;;
76094;SDS011;64821;13.710;100.604;2023-04-24T03:28:12;28.60;;;22.63;;
76094;SDS011;64821;13.710;100.604;2023-04-24T03:29:16;31.67;;;24.77;;
76094;SDS011;64821;13.710;100.604;2023-04-24T03:30:19;30.50;;;22.67;;
76094;SDS011;64821;13.710;100.604;2023-04-24T03:31:22;28.35;;;21.33;;
76094;SDS011;64821;13.710;100.604;2023-04-24T03:32:25;32.03;;;23.27;;
76094;SDS011;64821;13.710;100.604;2023-04-24T03:33:28;27.92;;;20.48;;
76094;SDS011;64821;13.710;100.604;2023-04-24T03:34:31;27.92;;;21.38;;
76094;SDS011;64821;13.710;100.604;2023-04-24T03:35:34;30.35;;;22.00;;
76094;SDS011;64821;13.710;100.604;2023-04-24T03:36:37;28.63;;;22.10;;
76094;SDS011;64821;13.710;100.604;2023-04-24T03:37:40;28.17;;;21.98;;
76094;SDS011;64821;13.710;100.604;2023-04-24T03:38:43;29.58;;;21.33;;
76094;SDS011;64821;13.710;100.604;2023-04-24T03:39:46;30.27;;;22.10;;
76094;SDS011;64821;13.710;100.604;2023-04-24T03:40:48;29.27;;;22.75;;
76094;SDS011;64821;13.710;100.604;2023-04-24T03:41:51;27.52;;;21.38;;
76094;SDS011;64821;13.710;100.604;2023-04-24T03:42:54;27.65;;;20.88;;
76094;SDS011;64821;13.710;100.604;2023-04-24T03:43:57;27.67;;;21.13;;
76094;SDS011;64821;13.710;100.604;2023-04-24T03:45:02;28.27;;;20.75;;
76094;SDS011;64821;13.710;100.604;2023-04-24T03:46:05;28.83;;;21.30;;
76094;SDS011;64821;13.710;100.604;2023-04-24T03:47:08;30.23;;;22.27;;
76094;SDS011;64821;13.710;100.604;2023-04-24T03:48:11;27.10;;;20.23;;
76094;SDS011;64821;13.710;100.604;2023-04-24T03:49:13;27.63;;;20.90;;
76094;SDS011;64821;13.710;100.604;2023-04-24T03:50:16;26.73;;;20.47;;
76094;SDS011;64821;13.710;100.604;2023-04-24T03:51:19;26.50;;;19.63;;
76094;SDS011;64821;13.710;100.604;2023-04-24T03:52:22;28.38;;;20.50;;
76094;SDS011;64821;13.710;100.604;2023-04-24T03:53:25;39.17;;;25.15;;
76094;SDS011;64821;13.710;100.604;2023-04-24T03:54:28;33.03;;;21.65;;
76094;SDS011;64821;13.710;100.604;2023-04-24T03:55:31;33.65;;;22.42;;
76094;SDS011;64821;13.710;100.604;2023-04-24T03:56:34;30.05;;;22.73;;
76094;SDS011;64821;13.710;100.604;2023-04-24T03:57:37;28.50;;;21.92;;
76094;SDS011;64821;13.710;100.604;2023-04-24T03:58:39;30.38;;;22.20;;
76094;SDS011;64821;13.710;100.604;2023-04-24T03:59:44;28.35;;;21.50;;
76094;SDS011;64821;13.710;100.604;2023-04-24T04:00:48;28.70;;;21.23;;
76094;SDS011;64821;13.710;100.604;2023-04-24T04:01:51;31.90;;;22.10;;
76094;SDS011;64821;13.710;100.604;2023-04-24T04:02:54;30.33;;;21.48;;
76094;SDS011;64821;13.710;100.604;2023-04-24T04:03:57;30.08;;;21.45;;
76094;SDS011;64821;13.710;100.604;2023-04-24T04:05:00;28.85;;;20.40;;
76094;SDS011;64821;13.710;100.604;2023-04-24T04:06:04;33.15;;;20.88;;
76094;SDS011;64821;13.710;100.604;2023-04-24T04:07:07;28.33;;;20.20;;
76094;SDS011;64821;13.710;100.604;2023-04-24T04:08:10;30.27;;;21.15;;
76094;SDS011;64821;13.710;100.604;2023-04-24T04:09:12;29.10;;;20.08;;
76094;SDS011;64821;13.710;100.604;2023-04-24T04:10:15;29.02;;;20.88;;
76094;SDS011;64821;13.710;100.604;2023-04-24T04:11:18;27.77;;;21.17;;
76094;SDS011;64821;13.710;100.604;2023-04-24T04:12:21;26.77;;;19.35;;
76094;SDS011;64821;13.710;100.604;2023-04-24T04:13:24;28.80;;;19.60;;
76094;SDS011;64821;13.710;100.604;2023-04-24T04:14:27;33.50;;;20.13;;
76094;SDS011;64821;13.710;100.604;2023-04-24T04:15:30;31.80;;;18.58;;
76094;SDS011;64821;13.710;100.604;2023-04-24T04:16:34;28.77;;;19.02;;
76094;SDS011;64821;13.710;100.604;2023-04-24T04:17:37;30.52;;;18.40;;
76094;SDS011;64821;13.710;100.604;2023-04-24T04:18:40;25.73;;;16.90;;
76094;SDS011;64821;13.710;100.604;2023-04-24T04:19:43;31.25;;;17.80;;
76094;SDS011;64821;13.710;100.604;2023-04-24T04:20:46;28.50;;;18.70;;
76094;SDS011;64821;13.710;100.604;2023-04-24T04:21:49;28.17;;;18.57;;
76094;SDS011;64821;13.710;100.604;2023-04-24T04:22:52;28.45;;;18.83;;
76094;SDS011;64821;13.710;100.604;2023-04-24T04:23:55;28.45;;;19.20;;
76094;SDS011;64821;13.710;100.604;2023-04-24T04:24:58;27.80;;;19.33;;
76094;SDS011;64821;13.710;100.604;2023-04-24T04:26:01;28.17;;;19.15;;
76094;SDS011;64821;13.710;100.604;2023-04-24T04:27:04;30.30;;;19.88;;
76094;SDS011;64821;13.710;100.604;2023-04-24T04:28:07;27.27;;;18.63;;
76094;SDS011;64821;13.710;100.604;2023-04-24T04:29:10;25.75;;;18.08;;
76094;SDS011;64821;13.710;100.604;2023-04-24T04:30:13;25.45;;;18.08;;
76094;SDS011;64821;13.710;100.604;2023-04-24T04:31:16;25.15;;;17.70;;
76094;SDS011;64821;13.710;100.604;2023-04-24T04:32:20;26.37;;;18.37;;
76094;SDS011;64821;13.710;100.604;2023-04-24T04:33:23;25.95;;;19.30;;
76094;SDS011;64821;13.710;100.604;2023-04-24T04:34:26;26.77;;;20.00;;
76094;SDS011;64821;13.710;100.604;2023-04-24T04:35:29;31.00;;;20.58;;
76094;SDS011;64821;13.710;100.604;2023-04-24T04:36:32;29.58;;;21.05;;
76094;SDS011;64821;13.710;100.604;2023-04-24T04:37:35;31.00;;;20.67;;
76094;SDS011;64821;13.710;100.604;2023-04-24T04:38:38;28.33;;;20.85;;
76094;SDS011;64821;13.710;100.604;2023-04-24T04:39:43;27.40;;;20.95;;
76094;SDS011;64821;13.710;100.604;2023-04-24T04:40:46;30.67;;;21.80;;
76094;SDS011;64821;13.710;100.604;2023-04-24T04:41:49;32.78;;;23.10;;
76094;SDS011;64821;13.710;100.604;2023-04-24T04:42:52;27.27;;;21.63;;
76094;SDS011;64821;13.710;100.604;2023-04-24T04:43:55;29.67;;;22.88;;
76094;SDS011;64821;13.710;100.604;2023-04-24T04:44:58;28.02;;;22.63;;
76094;SDS011;64821;13.710;100.604;2023-04-24T04:46:01;29.40;;;23.35;;
76094;SDS011;64821;13.710;100.604;2023-04-24T04:47:04;29.52;;;23.20;;
76094;SDS011;64821;13.710;100.604;2023-04-24T04:48:08;30.17;;;22.65;;
76094;SDS011;64821;13.710;100.604;2023-04-24T04:49:11;28.98;;;22.25;;
76094;SDS011;64821;13.710;100.604;2023-04-24T04:50:14;29.55;;;22.55;;
76094;SDS011;64821;13.710;100.604;2023-04-24T04:51:17;28.75;;;22.00;;
76094;SDS011;64821;13.710;100.604;2023-04-24T04:52:20;29.70;;;22.45;;
76094;SDS011;64821;13.710;100.604;2023-04-24T04:53:23;27.77;;;22.13;;
76094;SDS011;64821;13.710;100.604;2023-04-24T04:54:26;32.88;;;23.92;;
76094;SDS011;64821;13.710;100.604;2023-04-24T04:55:29;32.45;;;25.73;;
76094;SDS011;64821;13.710;100.604;2023-04-24T04:56:32;33.80;;;24.70;;
76094;SDS011;64821;13.710;100.604;2023-04-24T04:57:35;31.30;;;24.52;;
76094;SDS011;64821;13.710;100.604;2023-04-24T04:58:38;35.15;;;25.17;;
76094;SDS011;64821;13.710;100.604;2023-04-24T04:59:40;35.50;;;25.45;;
76094;SDS011;64821;13.710;100.604;2023-04-24T05:00:44;34.83;;;25.30;;
76094;SDS011;64821;13.710;100.604;2023-04-24T05:01:47;34.55;;;25.58;;
76094;SDS011;64821;13.710;100.604;2023-04-24T05:02:50;34.63;;;26.05;;
76094;SDS011;64821;13.710;100.604;2023-04-24T05:03:54;34.33;;;25.23;;
76094;SDS011;64821;13.710;100.604;2023-04-24T05:04:58;32.03;;;24.35;;
76094;SDS011;64821;13.710;100.604;2023-04-24T05:06:01;36.75;;;25.50;;
76094;SDS011;64821;13.710;100.604;2023-04-24T05:07:04;36.20;;;25.70;;
76094;SDS011;64821;13.710;100.604;2023-04-24T05:08:07;33.22;;;24.17;;
76094;SDS011;64821;13.710;100.604;2023-04-24T05:09:24;33.05;;;23.33;;
76094;SDS011;64821;13.710;100.604;2023-04-24T05:10:27;34.95;;;25.08;;
76094;SDS011;64821;13.710;100.604;2023-04-24T05:11:30;32.17;;;24.23;;
76094;SDS011;64821;13.710;100.604;2023-04-24T05:12:33;34.63;;;25.13;;
76094;SDS011;64821;13.710;100.604;2023-04-24T05:13:36;37.65;;;26.02;;
76094;SDS011;64821;13.710;100.604;2023-04-24T05:14:41;35.37;;;25.53;;
76094;SDS011;64821;13.710;100.604;2023-04-24T05:15:44;41.05;;;26.38;;
76094;SDS011;64821;13.710;100.604;2023-04-24T05:16:47;40.53;;;25.85;;
76094;SDS011;64821;13.710;100.604;2023-04-24T05:17:50;39.70;;;27.20;;
76094;SDS011;64821;13.710;100.604;2023-04-24T05:18:55;33.50;;;25.02;;
76094;SDS011;64821;13.710;100.604;2023-04-24T05:19:58;35.25;;;25.30;;
76094;SDS011;64821;13.710;100.604;2023-04-24T05:21:01;34.78;;;24.50;;
76094;SDS011;64821;13.710;100.604;2023-04-24T05:22:04;32.85;;;25.00;;
76094;SDS011;64821;13.710;100.604;2023-04-24T05:23:07;35.65;;;25.15;;
76094;SDS011;64821;13.710;100.604;2023-04-24T05:24:10;33.08;;;24.45;;
76094;SDS011;64821;13.710;100.604;2023-04-24T05:25:13;31.33;;;23.67;;
76094;SDS011;64821;13.710;100.604;2023-04-24T05:26:15;33.03;;;24.75;;
76094;SDS011;64821;13.710;100.604;2023-04-24T05:27:18;32.25;;;24.38;;
76094;SDS011;64821;13.710;100.604;2023-04-24T05:28:21;31.65;;;22.80;;
76094;SDS011;64821;13.710;100.604;2023-04-24T05:29:24;33.70;;;24.23;;
76094;SDS011;64821;13.710;100.604;2023-04-24T05:30:27;29.00;;;22.77;;
76094;SDS011;64821;13.710;100.604;2023-04-24T05:31:30;30.63;;;23.83;;
76094;SDS011;64821;13.710;100.604;2023-04-24T05:32:33;32.53;;;23.88;;
76094;SDS011;64821;13.710;100.604;2023-04-24T05:33:36;37.33;;;27.65;;
76094;SDS011;64821;13.710;100.604;2023-04-24T05:34:41;34.33;;;24.88;;
76094;SDS011;64821;13.710;100.604;2023-04-24T05:35:43;32.80;;;25.03;;
76094;SDS011;64821;13.710;100.604;2023-04-24T05:36:46;32.72;;;24.92;;
76094;SDS011;64821;13.710;100.604;2023-04-24T05:37:49;30.08;;;22.60;;
76094;SDS011;64821;13.710;100.604;2023-04-24T05:38:52;34.60;;;24.40;;
76094;SDS011;64821;13.710;100.604;2023-04-24T05:39:55;29.83;;;21.45;;
76094;SDS011;64821;13.710;100.604;2023-04-24T05:40:58;28.70;;;22.58;;
76094;SDS011;64821;13.710;100.604;2023-04-24T05:42:01;28.85;;;21.30;;
76094;SDS011;64821;13.710;100.604;2023-04-24T05:43:04;28.20;;;20.95;;
76094;SDS011;64821;13.710;100.604;2023-04-24T05:44:07;27.80;;;22.33;;
76094;SDS011;64821;13.710;100.604;2023-04-24T05:45:10;29.67;;;22.65;;
76094;SDS011;64821;13.710;100.604;2023-04-24T05:46:13;27.43;;;22.40;;
76094;SDS011;64821;13.710;100.604;2023-04-24T05:47:16;27.63;;;21.25;;
76094;SDS011;64821;13.710;100.604;2023-04-24T05:48:19;27.08;;;21.15;;
76094;SDS011;64821;13.710;100.604;2023-04-24T05:49:21;29.40;;;22.33;;
76094;SDS011;64821;13.710;100.604;2023-04-24T05:50:26;26.42;;;20.75;;
76094;SDS011;64821;13.710;100.604;2023-04-24T05:51:29;30.70;;;23.35;;
76094;SDS011;64821;13.710;100.604;2023-04-24T05:52:32;31.95;;;24.65;;
76094;SDS011;64821;13.710;100.604;2023-04-24T05:53:35;33.97;;;25.70;;
76094;SDS011;64821;13.710;100.604;2023-04-24T05:54:37;30.75;;;23.70;;
76094;SDS011;64821;13.710;100.604;2023-04-24T05:55:40;27.92;;;22.23;;
76094;SDS011;64821;13.710;100.604;2023-04-24T05:56:43;30.63;;;23.30;;
76094;SDS011;64821;13.710;100.604;2023-04-24T05:57:46;32.75;;;25.27;;
76094;SDS011;64821;13.710;100.604;2023-04-24T05:58:49;31.20;;;22.35;;